createdAt,value
2023-05-23T00:01:18.729Z,100327.06
2023-05-23T00:03:47.838Z,100327.86
2023-05-23T00:06:21.462Z,100329.29
2023-05-23T00:08:50.844Z,100328.48
2023-05-23T00:11:20.541Z,100324.92
2023-05-23T00:13:48.400Z,100328.43
2023-05-23T00:16:16.722Z,100324.84
2023-05-23T00:18:45.983Z,100328.00
2023-05-23T00:21:14.020Z,100324.92
2023-05-23T00:23:44.910Z,100323.43
2023-05-23T00:26:12.949Z,100324.34
2023-05-23T00:28:42.294Z,100320.79
2023-05-23T00:31:10.514Z,100320.89
2023-05-23T00:33:38.840Z,100317.38
2023-05-23T00:36:06.864Z,100317.67
2023-05-23T00:38:34.859Z,100324.10
2023-05-23T00:41:02.801Z,100323.51
2023-05-23T00:43:31.703Z,100321.52
2023-05-23T00:46:00.890Z,100321.60
2023-05-23T00:48:29.721Z,100322.19
2023-05-23T00:50:58.197Z,100321.20
2023-05-23T00:53:26.949Z,100321.58
2023-05-23T00:55:55.254Z,100319.90
2023-05-23T00:58:24.435Z,100319.65
2023-05-23T01:00:54.621Z,100316.78
2023-05-23T01:03:24.177Z,100319.77
2023-05-23T01:05:53.051Z,100321.35
2023-05-23T01:08:22.124Z,100324.69
2023-05-23T01:10:51.572Z,100320.25
2023-05-23T01:13:47.977Z,100322.38
2023-05-23T01:16:28.351Z,100322.30
2023-05-23T01:19:08.778Z,100323.97
2023-05-23T01:21:38.392Z,100329.05
2023-05-23T01:24:06.254Z,100324.98
2023-05-23T01:26:43.324Z,100322.98
2023-05-23T01:29:14.852Z,100326.56
2023-05-23T01:31:50.189Z,100322.52
2023-05-23T01:34:19.678Z,100325.88
2023-05-23T01:36:50.872Z,100322.63
2023-05-23T01:39:18.741Z,100319.04
2023-05-23T01:41:47.039Z,100317.35
2023-05-23T01:44:15.652Z,100317.57
2023-05-23T01:46:45.081Z,100314.88
2023-05-23T01:49:14.548Z,100312.70
2023-05-23T01:51:42.903Z,100311.71
2023-05-23T01:54:11.712Z,100309.34
2023-05-23T01:56:41.649Z,100307.98
2023-05-23T01:59:10.316Z,100303.88
2023-05-23T02:01:38.777Z,100302.67
2023-05-23T02:04:07.063Z,100298.41
2023-05-23T02:06:35.081Z,100294.48
2023-05-23T02:09:03.211Z,100292.65
2023-05-23T02:11:33.779Z,100291.32
2023-05-23T02:14:02.725Z,100290.86
2023-05-23T02:16:30.846Z,100286.11
2023-05-23T02:18:59.531Z,100287.54
2023-05-23T02:21:27.429Z,100287.44
2023-05-23T02:23:55.318Z,100286.15
2023-05-23T02:26:23.403Z,100288.96
2023-05-23T02:28:51.525Z,100289.87
2023-05-23T02:31:19.529Z,100285.79
2023-05-23T02:33:47.516Z,100280.48
2023-05-23T02:36:16.124Z,100279.80
2023-05-23T02:38:45.495Z,100281.70
2023-05-23T02:41:13.398Z,100279.44
2023-05-23T02:43:41.863Z,100278.60
2023-05-23T02:46:10.051Z,100271.91
2023-05-23T02:48:38.081Z,100271.23
2023-05-23T02:51:06.978Z,100274.83
2023-05-23T02:53:34.963Z,100270.85
2023-05-23T02:56:03.103Z,100270.64
2023-05-23T02:58:31.986Z,100269.23
2023-05-23T03:00:59.814Z,100271.10
2023-05-23T03:03:28.953Z,100271.42
2023-05-23T03:06:05.218Z,100272.41
2023-05-23T03:08:33.736Z,100270.97
2023-05-23T03:11:01.720Z,100271.77
2023-05-23T03:13:30.881Z,100275.70
2023-05-23T03:15:59.491Z,100273.55
2023-05-23T03:18:27.649Z,100275.04
2023-05-23T03:20:57.334Z,100272.17
2023-05-23T03:23:25.632Z,100269.35
2023-05-23T03:25:53.681Z,100272.85
2023-05-23T03:28:22.403Z,100272.63
2023-05-23T03:30:50.580Z,100271.14
2023-05-23T03:33:18.715Z,100273.77
2023-05-23T03:35:46.995Z,100272.47
2023-05-23T03:38:15.367Z,100271.01
2023-05-23T03:40:43.509Z,100271.95
2023-05-23T03:43:12.475Z,100269.58
2023-05-23T03:45:42.207Z,100267.23
2023-05-23T03:48:14.008Z,100273.70
2023-05-23T03:50:43.197Z,100271.02
2023-05-23T03:53:12.011Z,100269.31
2023-05-23T03:55:40.159Z,100270.23
2023-05-23T03:58:08.812Z,100264.20
2023-05-23T04:00:37.435Z,100265.42
2023-05-23T04:03:09.181Z,100261.63
2023-05-23T04:05:37.773Z,100262.45
2023-05-23T04:08:05.941Z,100259.62
2023-05-23T04:10:34.342Z,100254.95
2023-05-23T04:13:02.596Z,100251.74
2023-05-23T04:15:30.763Z,100251.31
2023-05-23T04:18:04.487Z,100250.65
2023-05-23T04:20:32.679Z,100250.55
2023-05-23T04:23:01.326Z,100249.72
2023-05-23T04:25:31.865Z,100252.34
2023-05-23T04:28:12.308Z,100255.04
2023-05-23T04:30:40.507Z,100252.40
2023-05-23T04:33:10.189Z,100252.59
2023-05-23T04:35:41.451Z,100251.54
2023-05-23T04:38:10.346Z,100249.40
2023-05-23T04:40:38.516Z,100247.87
2023-05-23T04:43:14.543Z,100248.21
2023-05-23T04:53:31.370Z,100242.64
2023-05-23T04:56:00.047Z,100241.98
2023-05-23T04:58:29.670Z,100242.54
2023-05-23T05:01:01.598Z,100238.46
2023-05-23T05:03:29.754Z,100237.18
2023-05-23T05:05:58.064Z,100232.62
2023-05-23T05:08:26.415Z,100227.64
2023-05-23T05:10:57.450Z,100229.20
2023-05-23T05:13:26.027Z,100229.20
2023-05-23T05:15:56.117Z,100228.88
2023-05-23T05:18:29.095Z,100230.06
2023-05-23T05:20:58.887Z,100227.34
2023-05-23T05:23:30.357Z,100224.48
2023-05-23T05:25:59.026Z,100221.70
2023-05-23T05:28:26.966Z,100216.30
2023-05-23T05:30:55.127Z,100219.48
2023-05-23T05:33:25.499Z,100219.89
2023-05-23T05:36:04.814Z,100214.38
2023-05-23T05:38:32.910Z,100215.27
2023-05-23T05:41:01.265Z,100216.09
2023-05-23T05:43:34.497Z,100215.99
2023-05-23T05:46:02.890Z,100219.46
2023-05-23T05:48:31.816Z,100218.88
2023-05-23T05:51:03.725Z,100221.56
2023-05-23T05:53:35.525Z,100221.98
2023-05-23T05:56:04.123Z,100218.17
2023-05-23T05:58:33.854Z,100216.73
2023-05-23T06:01:05.937Z,100214.45
2023-05-23T06:03:34.387Z,100211.46
2023-05-23T06:06:02.599Z,100214.38
2023-05-23T06:08:30.627Z,100214.67
2023-05-23T06:10:58.503Z,100211.53
2023-05-23T06:13:27.263Z,100206.36
2023-05-23T06:15:55.584Z,100205.73
2023-05-23T06:18:24.217Z,100204.13
2023-05-23T06:20:52.621Z,100201.52
2023-05-23T06:23:22.243Z,100201.46
2023-05-23T06:25:50.433Z,100195.27
2023-05-23T06:28:18.368Z,100197.21
2023-05-23T06:30:47.246Z,100194.59
2023-05-23T06:33:16.727Z,100196.80
2023-05-23T06:35:44.568Z,100191.45
2023-05-23T06:38:12.709Z,100187.70
2023-05-23T06:40:41.619Z,100179.39
2023-05-23T06:43:11.255Z,100182.16
2023-05-23T06:45:50.116Z,100178.79
2023-05-23T06:48:18.258Z,100171.20
2023-05-23T06:50:46.494Z,100171.49
2023-05-23T06:53:18.892Z,100174.05
2023-05-23T06:55:47.405Z,100169.89
2023-05-23T06:58:17.211Z,100170.02
2023-05-23T07:00:45.840Z,100167.48
2023-05-23T07:03:23.814Z,100165.75
2023-05-23T07:05:52.786Z,100161.05
2023-05-23T07:08:21.610Z,100157.21
2023-05-23T07:11:00.706Z,100157.61
2023-05-23T07:13:38.407Z,100159.61
2023-05-23T07:16:06.794Z,100158.52
2023-05-23T07:18:38.710Z,100156.98
2023-05-23T07:21:07.200Z,100151.75
2023-05-23T07:23:35.189Z,100149.60
2023-05-23T07:26:03.646Z,100150.36
2023-05-23T07:28:48.752Z,100148.31
2023-05-23T07:31:17.097Z,100142.76
2023-05-23T07:33:45.742Z,100145.67
2023-05-23T07:36:18.102Z,100140.48
2023-05-23T07:38:46.989Z,100138.20
2023-05-23T07:41:15.375Z,100134.36
2023-05-23T07:43:43.367Z,100131.42
2023-05-23T07:46:11.782Z,100129.09
2023-05-23T07:48:40.166Z,100129.87
2023-05-23T07:51:08.140Z,100127.27
2023-05-23T07:53:40.249Z,100122.48
2023-05-23T07:56:11.018Z,100117.39
2023-05-23T07:58:40.340Z,100116.67
2023-05-23T08:01:08.968Z,100117.98
2023-05-23T08:03:56.090Z,100114.69
2023-05-23T08:06:29.851Z,100114.52
2023-05-23T08:08:59.226Z,100116.88
2023-05-23T08:11:30.433Z,100110.30
2023-05-23T08:14:01.553Z,100110.45
2023-05-23T08:16:39.057Z,100108.09
2023-05-23T08:19:14.601Z,100105.79
2023-05-23T08:21:43.316Z,100102.45
2023-05-23T08:24:14.918Z,100100.90
2023-05-23T08:26:43.968Z,100098.38
2023-05-23T08:29:14.116Z,100093.99
2023-05-23T08:31:43.312Z,100095.34
2023-05-23T08:34:11.615Z,100095.98
2023-05-23T08:36:43.248Z,100090.80
2023-05-23T08:39:15.275Z,100091.95
2023-05-23T08:41:57.629Z,100087.46
2023-05-23T08:44:25.810Z,100090.98
2023-05-23T08:47:02.531Z,100084.31
2023-05-23T08:49:49.254Z,100080.80
2023-05-23T08:52:22.357Z,100082.91
2023-05-23T08:54:52.906Z,100083.29
2023-05-23T08:57:21.439Z,100082.41
2023-05-23T08:59:54.972Z,100081.33
2023-05-23T09:02:24.943Z,100075.02
2023-05-23T09:04:56.050Z,100069.27
2023-05-23T09:07:29.527Z,100073.79
2023-05-23T09:09:58.860Z,100073.46
2023-05-23T09:12:26.941Z,100079.17
2023-05-23T09:14:55.509Z,100075.66
2023-05-23T09:17:25.618Z,100073.48
2023-05-23T09:19:54.536Z,100068.52
2023-05-23T09:22:37.931Z,100068.78
2023-05-23T09:25:14.261Z,100067.88
2023-05-23T09:27:46.601Z,100070.12
2023-05-23T09:30:17.806Z,100060.55
2023-05-23T09:33:04.086Z,100059.58
2023-05-23T09:35:33.851Z,100058.76
2023-05-23T09:38:02.052Z,100053.80
2023-05-23T09:40:34.759Z,100057.24
2023-05-23T09:43:05.784Z,100054.24
2023-05-23T09:45:34.698Z,100054.20
2023-05-23T09:48:03.292Z,100049.95
2023-05-23T09:50:33.987Z,100049.53
2023-05-23T09:53:03.200Z,100048.27
2023-05-23T09:55:31.635Z,100041.95
2023-05-23T09:58:00.852Z,100043.95
2023-05-23T10:00:29.294Z,100047.19
2023-05-23T10:03:17.598Z,100045.70
2023-05-23T10:05:48.081Z,100051.02
2023-05-23T10:08:27.409Z,100048.41
2023-05-23T10:10:58.131Z,100056.20
2023-05-23T10:13:27.978Z,100054.30
2023-05-23T10:16:03.103Z,100049.02
2023-05-23T10:18:39.368Z,100051.23
2023-05-23T10:21:12.826Z,100049.44
2023-05-23T10:23:42.873Z,100046.36
2023-05-23T10:26:11.675Z,100042.88
2023-05-23T10:28:42.403Z,100040.30
2023-05-23T10:31:11.834Z,100041.04
2023-05-23T10:33:45.475Z,100044.00
2023-05-23T10:36:37.968Z,100043.89
2023-05-23T10:39:14.701Z,100039.16
2023-05-23T10:41:52.070Z,100035.18
2023-05-23T10:44:30.529Z,100035.41
2023-05-23T10:47:04.128Z,100035.77
2023-05-23T10:49:46.646Z,100031.89
2023-05-23T10:52:17.213Z,100029.77
2023-05-23T10:54:48.938Z,100029.66
2023-05-23T10:57:19.145Z,100032.06
2023-05-23T10:59:49.976Z,100033.70
2023-05-23T11:02:27.633Z,100031.75
2023-05-23T11:05:33.979Z,100031.30
2023-05-23T11:08:27.442Z,100025.88
2023-05-23T11:11:05.025Z,100021.50
2023-05-23T11:14:00.492Z,100022.19
2023-05-23T11:16:30.152Z,100012.17
2023-05-23T11:19:18.499Z,100015.65
2023-05-23T11:21:53.224Z,100014.84
2023-05-23T11:24:21.721Z,100012.45
2023-05-23T11:27:04.142Z,100007.77
2023-05-23T11:29:32.139Z,100003.66
2023-05-23T11:32:00.216Z,99999.73
2023-05-23T11:34:28.399Z,99993.83
2023-05-23T11:36:56.597Z,99994.50
2023-05-23T11:39:24.840Z,99992.65
2023-05-23T11:42:01.116Z,99990.09
2023-05-23T11:44:29.361Z,99989.05
2023-05-23T11:47:05.023Z,99981.63
2023-05-23T11:49:36.475Z,99979.73
2023-05-23T11:52:09.486Z,99980.99
2023-05-23T11:54:37.668Z,99987.25
2023-05-23T11:57:05.730Z,99987.36
2023-05-23T11:59:34.518Z,99989.94
2023-05-23T12:02:03.825Z,99987.59
2023-05-23T12:04:31.756Z,99981.83
2023-05-23T12:06:59.852Z,99981.11
2023-05-23T12:09:27.760Z,99976.71
2023-05-23T12:11:55.862Z,99975.24
2023-05-23T12:14:23.978Z,99979.36
2023-05-23T12:16:52.871Z,99982.75
2023-05-23T12:19:21.069Z,99971.60
2023-05-23T12:21:49.639Z,99972.55
2023-05-23T12:24:19.907Z,99970.69
2023-05-23T12:26:49.765Z,99971.27
2023-05-23T12:29:34.818Z,99972.45
2023-05-23T12:32:05.486Z,99964.10
2023-05-23T12:34:33.520Z,99967.80
2023-05-23T12:39:36.974Z,99963.64
2023-05-23T12:49:46.730Z,99953.88
2023-05-23T12:52:14.642Z,99953.11
2023-05-23T12:54:42.969Z,99951.27
2023-05-23T12:57:10.805Z,99951.20
2023-05-23T12:59:38.909Z,99943.67
2023-05-23T13:02:07.198Z,99942.39
2023-05-23T13:04:35.130Z,99936.62
2023-05-23T13:07:03.424Z,99939.43
2023-05-23T13:09:31.406Z,99940.76
2023-05-23T13:11:59.660Z,99935.20
2023-05-23T13:14:27.624Z,99923.25
2023-05-23T13:16:55.977Z,99919.86
2023-05-23T13:19:23.886Z,99924.27
2023-05-23T13:21:52.247Z,99926.58
2023-05-23T13:24:21.473Z,99927.14
2023-05-23T13:26:49.472Z,99928.70
2023-05-23T13:29:18.407Z,99927.28
2023-05-23T13:31:47.200Z,99929.33
2023-05-23T13:34:15.568Z,99929.80
2023-05-23T13:36:43.425Z,99927.23
2023-05-23T13:39:11.507Z,99924.14
2023-05-23T13:41:39.578Z,99920.80
2023-05-23T13:44:07.607Z,99921.11
2023-05-23T13:46:35.792Z,99923.65
2023-05-23T13:49:03.939Z,99922.27
2023-05-23T13:51:32.739Z,99920.13
2023-05-23T13:54:00.879Z,99920.83
2023-05-23T13:56:29.606Z,99915.32
2023-05-23T13:58:57.691Z,99918.66
2023-05-23T14:01:25.627Z,99916.86
2023-05-23T14:03:53.581Z,99916.73
2023-05-23T14:06:21.718Z,99915.17
2023-05-23T14:08:49.719Z,99912.27
2023-05-23T14:11:17.799Z,99908.60
2023-05-23T14:13:45.897Z,99907.02
2023-05-23T14:16:14.110Z,99910.52
2023-05-23T14:18:42.488Z,99907.84
2023-05-23T14:21:12.922Z,99907.65
2023-05-23T14:23:40.918Z,99908.08
2023-05-23T14:26:08.896Z,99909.38
2023-05-23T14:28:37.489Z,99907.97
2023-05-23T14:31:06.233Z,99903.71
2023-05-23T14:33:34.895Z,99902.94
2023-05-23T14:36:03.311Z,99900.83
2023-05-23T14:38:31.384Z,99903.59
2023-05-23T14:41:00.142Z,99907.08
2023-05-23T14:43:28.237Z,99900.23
2023-05-23T14:45:56.275Z,99906.01
2023-05-23T14:48:24.404Z,99901.79
2023-05-23T14:50:52.641Z,99900.50
2023-05-23T14:53:24.219Z,99904.02
2023-05-23T14:55:52.029Z,99904.61
2023-05-23T14:58:21.833Z,99899.30
2023-05-23T15:00:49.766Z,99898.11
2023-05-23T15:03:18.727Z,99902.77
2023-05-23T15:05:48.691Z,99901.63
2023-05-23T15:08:18.352Z,99900.13
2023-05-23T15:10:46.478Z,99900.76
2023-05-23T15:13:14.624Z,99895.52
2023-05-23T15:15:43.060Z,99893.73
2023-05-23T15:18:21.316Z,99897.48
2023-05-23T15:20:56.337Z,99896.27
2023-05-23T15:23:24.291Z,99890.66
2023-05-23T15:25:52.308Z,99890.13
2023-05-23T15:28:20.894Z,99888.13
2023-05-23T15:30:50.148Z,99885.40
2023-05-23T15:33:18.554Z,99884.52
2023-05-23T15:35:47.158Z,99884.08
2023-05-23T15:38:17.140Z,99881.56
2023-05-23T15:40:49.119Z,99877.65
2023-05-23T15:43:17.324Z,99880.79
2023-05-23T15:45:45.605Z,99880.85
2023-05-23T15:48:13.904Z,99878.31
2023-05-23T15:50:42.768Z,99877.03
2023-05-23T15:53:11.724Z,99877.03
2023-05-23T15:55:42.517Z,99873.25
2023-05-23T15:58:11.474Z,99874.83
2023-05-23T16:00:40.044Z,99869.77
2023-05-23T16:03:08.443Z,99864.08
2023-05-23T16:05:36.822Z,99867.58
2023-05-23T16:08:05.183Z,99865.11
2023-05-23T16:10:33.544Z,99863.08
2023-05-23T16:13:02.811Z,99859.86
2023-05-23T16:15:31.314Z,99857.55
2023-05-23T16:18:00.309Z,99860.73
2023-05-23T16:20:29.403Z,99857.20
2023-05-23T16:22:57.824Z,99857.02
2023-05-23T16:25:27.050Z,99857.54
2023-05-23T16:27:55.462Z,99854.39
2023-05-23T16:30:26.539Z,99857.39
2023-05-23T16:32:55.203Z,99859.95
2023-05-23T16:35:23.661Z,99858.65
2023-05-23T16:37:51.645Z,99861.05
2023-05-23T16:40:19.827Z,99859.81
2023-05-23T16:42:47.902Z,99862.16
2023-05-23T16:45:16.050Z,99860.30
2023-05-23T16:47:44.254Z,99856.85
2023-05-23T16:50:12.372Z,99862.98
2023-05-23T16:52:40.570Z,99856.08
2023-05-23T16:55:08.628Z,99857.52
2023-05-23T16:57:37.092Z,99860.25
2023-05-23T17:00:06.312Z,99863.39
2023-05-23T17:02:34.662Z,99866.13
2023-05-23T17:05:04.027Z,99864.99
2023-05-23T17:07:31.906Z,99869.78
2023-05-23T17:09:59.907Z,99869.09
2023-05-23T17:12:27.833Z,99869.64
2023-05-23T17:14:55.776Z,99869.53
2023-05-23T17:17:23.767Z,99869.49
2023-05-23T17:19:52.557Z,99869.48
2023-05-23T17:22:20.478Z,99870.55
2023-05-23T17:24:48.753Z,99871.38
2023-05-23T17:27:16.558Z,99870.63
2023-05-23T17:29:44.399Z,99870.95
2023-05-23T17:32:12.380Z,99869.38
2023-05-23T17:34:40.400Z,99870.08
2023-05-23T17:37:08.546Z,99875.05
2023-05-23T17:39:36.593Z,99875.24
2023-05-23T17:42:05.707Z,99877.11
2023-05-23T17:44:33.744Z,99873.86
2023-05-23T17:47:02.101Z,99872.40
2023-05-23T17:49:30.847Z,99874.30
2023-05-23T17:51:59.761Z,99876.69
2023-05-23T17:54:27.668Z,99876.58
2023-05-23T17:56:55.773Z,99880.81
2023-05-23T17:59:23.966Z,99882.98
2023-05-23T18:01:51.855Z,99880.13
2023-05-23T18:04:19.844Z,99877.06
2023-05-23T18:06:47.938Z,99876.79
2023-05-23T18:09:16.698Z,99879.16
2023-05-23T18:11:44.674Z,99881.24
2023-05-23T18:14:12.966Z,99883.50
2023-05-23T18:16:41.521Z,99885.73
2023-05-23T18:19:09.766Z,99882.35
2023-05-23T18:21:38.118Z,99882.98
2023-05-23T18:24:06.706Z,99883.55
2023-05-23T18:26:34.653Z,99882.23
2023-05-23T18:29:04.665Z,99882.34
2023-05-23T18:31:32.526Z,99887.92
2023-05-23T18:34:01.023Z,99890.84
2023-05-23T18:36:29.386Z,99896.69
2023-05-23T18:38:57.447Z,99901.46
2023-05-23T18:41:28.125Z,99903.11
2023-05-23T18:43:56.381Z,99905.40
2023-05-23T18:46:25.680Z,99903.77
2023-05-23T18:48:53.750Z,99907.52
2023-05-23T18:51:22.327Z,99906.83
2023-05-23T18:53:50.214Z,99909.11
2023-05-23T18:56:21.925Z,99911.14
2023-05-23T18:58:51.942Z,99912.68
2023-05-23T19:01:19.989Z,99914.17
2023-05-23T19:03:48.790Z,99923.02
2023-05-23T19:06:16.941Z,99921.50
2023-05-23T19:08:45.198Z,99924.27
2023-05-23T19:11:13.737Z,99924.40
2023-05-23T19:13:41.639Z,99925.67
2023-05-23T19:16:10.215Z,99924.88
2023-05-23T19:18:38.218Z,99926.58
2023-05-23T19:21:06.155Z,99927.94
2023-05-23T19:23:34.423Z,99928.70
2023-05-23T19:26:02.398Z,99929.57
2023-05-23T19:28:30.462Z,99925.86
2023-05-23T19:30:58.312Z,99929.71
2023-05-23T19:33:26.525Z,99933.54
2023-05-23T19:35:55.024Z,99933.29
2023-05-23T19:38:22.877Z,99937.01
2023-05-23T19:40:51.452Z,99938.15
2023-05-23T19:43:19.324Z,99938.17
2023-05-23T19:45:47.244Z,99936.85
2023-05-23T19:48:15.427Z,99935.82
2023-05-23T19:50:44.096Z,99939.53
2023-05-23T19:53:12.206Z,99938.69
2023-05-23T19:55:40.213Z,99942.29
2023-05-23T19:58:08.422Z,99936.71
2023-05-23T20:00:37.551Z,99938.80
2023-05-23T20:03:07.121Z,99942.46
2023-05-23T20:05:37.004Z,99941.43
2023-05-23T20:08:05.559Z,99939.92
2023-05-23T20:10:33.975Z,99942.61
2023-05-23T20:20:38.024Z,99948.98
2023-05-23T20:23:07.226Z,99950.36
2023-05-23T20:25:35.733Z,99953.18
2023-05-23T20:28:05.799Z,99949.63
2023-05-23T20:30:35.494Z,99957.44
2023-05-23T20:33:04.137Z,99953.67
2023-05-23T20:35:33.724Z,99954.54
2023-05-23T20:38:01.960Z,99954.84
2023-05-23T20:40:33.692Z,99957.14
2023-05-23T20:43:04.856Z,99957.30
2023-05-23T20:45:33.579Z,99961.66
2023-05-23T20:48:01.871Z,99962.67
2023-05-23T20:50:31.733Z,99963.70
2023-05-23T20:53:02.359Z,99959.81
2023-05-23T20:55:30.844Z,99960.89
2023-05-23T20:57:58.751Z,99958.52
2023-05-23T21:00:26.658Z,99956.97
2023-05-23T21:02:54.740Z,99956.55
2023-05-23T21:05:22.920Z,99953.66
2023-05-23T21:07:50.819Z,99951.58
2023-05-23T21:10:18.759Z,99956.99
2023-05-23T21:12:50.366Z,99953.48
2023-05-23T21:15:19.086Z,99954.01
2023-05-23T21:17:47.568Z,99953.33
2023-05-23T21:20:16.325Z,99950.56
2023-05-23T21:22:44.774Z,99948.55
2023-05-23T21:25:12.854Z,99944.52
2023-05-23T21:27:40.873Z,99945.69
2023-05-23T21:30:10.644Z,99950.48
2023-05-23T21:32:38.730Z,99951.06
2023-05-23T21:35:07.223Z,99952.67
2023-05-23T21:37:35.079Z,99950.77
2023-05-23T21:40:03.199Z,99950.58
2023-05-23T21:42:31.206Z,99953.00
2023-05-23T21:44:59.575Z,99954.23
2023-05-23T21:47:27.546Z,99952.73
2023-05-23T21:49:55.570Z,99954.63
2023-05-23T21:52:23.425Z,99957.89
2023-05-23T21:54:51.902Z,99954.85
2023-05-23T21:57:19.911Z,99955.94
2023-05-23T21:59:47.826Z,99954.35
2023-05-23T22:02:15.935Z,99958.02
2023-05-23T22:04:45.031Z,99957.48
2023-05-23T22:07:13.101Z,99955.06
2023-05-23T22:09:41.153Z,99954.77
2023-05-23T22:12:09.389Z,99953.42
2023-05-23T22:14:37.237Z,99956.66
2023-05-23T22:17:05.405Z,99961.96
2023-05-23T22:19:33.279Z,99958.46
2023-05-23T22:22:01.293Z,99960.73
2023-05-23T22:24:29.314Z,99961.30
2023-05-23T22:26:58.416Z,99962.14
2023-05-23T22:29:27.313Z,99963.95
2023-05-23T22:31:55.330Z,99959.73
2023-05-23T22:34:23.298Z,99960.53
2023-05-23T22:36:52.325Z,99957.54
2023-05-23T22:39:20.288Z,99956.91
2023-05-23T22:41:48.234Z,99955.48
2023-05-23T22:44:16.206Z,99955.55
2023-05-23T22:46:44.586Z,99957.53
2023-05-23T22:49:12.704Z,99955.00
2023-05-23T22:51:40.753Z,99959.85
2023-05-23T22:54:08.636Z,99957.66
2023-05-23T22:56:36.546Z,99955.10
2023-05-23T22:59:04.380Z,99953.38
2023-05-23T23:01:33.514Z,99953.73
2023-05-23T23:04:01.505Z,99957.23
2023-05-23T23:06:29.560Z,99959.05
2023-05-23T23:08:57.450Z,99956.44
2023-05-23T23:11:26.011Z,99956.11
2023-05-23T23:13:53.994Z,99951.83
2023-05-23T23:16:22.041Z,99953.62
2023-05-23T23:18:50.008Z,99951.16
2023-05-23T23:21:19.168Z,99946.90
2023-05-23T23:23:47.082Z,99944.45
2023-05-23T23:26:14.918Z,99943.38
2023-05-23T23:28:42.922Z,99940.55
2023-05-23T23:31:11.069Z,99937.84
2023-05-23T23:33:38.966Z,99939.17
2023-05-23T23:36:07.048Z,99935.74
2023-05-23T23:38:35.004Z,99939.32
2023-05-23T23:41:02.980Z,99935.73
2023-05-23T23:43:31.405Z,99935.74
2023-05-23T23:45:59.350Z,99934.35
2023-05-23T23:48:27.273Z,99931.39
2023-05-23T23:50:55.080Z,99934.84
2023-05-23T23:53:23.682Z,99930.31
2023-05-23T23:55:51.510Z,99928.08
2023-05-23T23:58:19.478Z,99930.22
